Time;durP1;ratioP1;P1;durP2;ratioP2;P2;SDS_P1;SDS_P2;PMS_P1;PMS_P2;Temp;Humidity;BMP_temperature;BMP_pressure;BME280_temperature;BME280_humidity;BME280_pressure;Samples;Min_cycle;Max_cycle;Signal;HPM_P1;HPM_P2
2023/02/05 00:00:41;;;;;;;;;;;;;;;-1.81;89.95;93234.53;5022384;28;19913;-47
2023/02/05 00:03:07;;;;;;;;;;;;;;;-1.97;90.54;93235.81;5022074;28;20030;-47
2023/02/05 00:05:32;;;;;;;;;;;;;;;-1.95;90.95;93244.19;5009607;28;19979;-47
2023/02/05 00:07:57;;;;;;;;;;;;;;;-1.83;90.26;93242.38;5020890;28;19921;-47
2023/02/05 00:10:22;;;;;;;;;;;;;;;-2.06;90.46;93249.50;5018378;28;19948;-47
2023/02/05 00:12:48;;;;;;;;;;;;;;;-1.94;90.92;93251.13;5026640;28;19926;-47
2023/02/05 00:15:13;;;;;;;;;;;;;;;-1.96;89.98;93258.97;5011239;28;19932;-46
2023/02/05 00:17:39;;;;;;;;;;;;;;;-2.13;90.71;93254.53;5020293;28;20023;-48
2023/02/05 00:20:04;;;;;;;;;;;;;;;-2.08;90.79;93260.00;5024271;28;20124;-47
2023/02/05 00:22:30;;;;;;;;;;;;;;;-2.01;90.61;93273.16;5021772;28;19925;-48
2023/02/05 00:24:55;;;;;;;;;;;;;;;-2.01;90.47;93267.75;5016538;28;19923;-47
2023/02/05 00:27:20;;;;;;;;;;;;;;;-1.90;89.56;93276.00;5014162;28;19917;-47
2023/02/05 00:29:47;;;;;;;;;;;;;;;-1.95;87.85;93279.38;5020036;28;19917;-47
2023/02/05 00:32:13;;;;;;;;;;;;;;;-2.04;89.17;93279.53;5014986;28;20491;-48
2023/02/05 00:34:38;;;;;;;;;;;;;;;-1.98;89.37;93274.16;5010317;28;19917;-48
2023/02/05 00:37:03;;;;;;;;;;;;;;;-1.85;89.24;93280.75;5024074;28;19921;-47
2023/02/05 00:39:28;;;;;;;;;;;;;;;-1.79;88.68;93284.25;5015918;28;19918;-47
2023/02/05 00:41:54;;;;;;;;;;;;;;;-1.72;88.41;93285.81;5022223;28;20317;-48
2023/02/05 00:44:19;;;;;;;;;;;;;;;-1.76;87.97;93294.16;5025039;28;19921;-47
2023/02/05 00:46:44;;;;;;;;;;;;;;;-2.01;87.79;93294.78;5024654;28;19925;-47
2023/02/05 00:49:09;;;;;;;;;;;;;;;-2.01;87.85;93297.50;5014179;28;20020;-48
2023/02/05 00:51:35;;;;;;;;;;;;;;;-1.98;86.62;93304.69;5022719;28;19913;-47
2023/02/05 00:54:00;;;;;;;;;;;;;;;-1.97;85.63;93303.44;5023587;28;19959;-46
2023/02/05 00:56:25;;;;;;;;;;;;;;;-2.17;86.53;93310.78;5021629;28;19979;-46
2023/02/05 00:58:50;;;;;;;;;;;;;;;-2.26;86.97;93305.50;5019233;28;20602;-46
2023/02/05 01:01:16;;;;;;;;;;;;;;;-2.38;87.72;93312.69;5014011;28;19921;-47
2023/02/05 01:03:42;;;;;;;;;;;;;;;-2.27;88.75;93307.44;5020671;28;19922;-46
2023/02/05 01:06:07;;;;;;;;;;;;;;;-2.29;87.65;93307.19;5023496;28;19929;-46
2023/02/05 01:08:32;;;;;;;;;;;;;;;-2.44;88.53;93309.16;5019551;28;20004;-46
2023/02/05 01:10:57;;;;;;;;;;;;;;;-2.26;88.77;93308.94;5018459;28;20008;-47
2023/02/05 01:13:23;;;;;;;;;;;;;;;-2.16;88.07;93312.28;5009383;28;20337;-46
2023/02/05 01:15:48;;;;;;;;;;;;;;;-2.42;87.48;93310.19;5009234;28;19917;-46
2023/02/05 01:18:13;;;;;;;;;;;;;;;-2.57;87.31;93308.72;5019717;28;19921;-46
2023/02/05 01:20:39;;;;;;;;;;;;;;;-2.58;87.60;93309.94;5023122;28;20533;-46
2023/02/05 01:23:05;;;;;;;;;;;;;;;-2.55;87.03;93304.34;5005417;28;19917;-45
2023/02/05 01:25:31;;;;;;;;;;;;;;;-2.49;86.63;93312.53;5018888;28;19917;-46
2023/02/05 01:27:56;;;;;;;;;;;;;;;-2.49;87.24;93323.34;5021169;28;19975;-46
2023/02/05 01:30:21;;;;;;;;;;;;;;;-2.55;87.15;93314.41;5025988;28;19951;-46
2023/02/05 01:32:47;;;;;;;;;;;;;;;-2.46;86.34;93322.41;5018042;28;20011;-46
2023/02/05 01:35:12;;;;;;;;;;;;;;;-2.38;86.93;93320.81;5015490;28;20401;-47
2023/02/05 01:37:37;;;;;;;;;;;;;;;-2.53;86.39;93320.06;5020889;28;19917;-47
2023/02/05 01:40:03;;;;;;;;;;;;;;;-2.58;86.96;93326.91;5009600;28;20016;-47
2023/02/05 01:42:29;;;;;;;;;;;;;;;-2.76;86.77;93321.69;5023151;28;19939;-46
2023/02/05 01:45:13;;;;;;;;;;;;;;;-2.73;85.89;93330.81;5020405;28;20032;-47
2023/02/05 01:47:38;;;;;;;;;;;;;;;-2.62;86.62;93328.31;5020521;28;20400;-47
2023/02/05 01:50:04;;;;;;;;;;;;;;;-2.50;86.36;93324.56;5021999;28;19925;-46
2023/02/05 01:52:29;;;;;;;;;;;;;;;-2.61;85.10;93325.13;5021172;28;19923;-46
2023/02/05 01:54:54;;;;;;;;;;;;;;;-2.72;85.65;93326.91;5007294;28;19924;-47
2023/02/05 01:57:21;;;;;;;;;;;;;;;-2.64;85.49;93334.16;5020174;28;19941;-47
2023/02/05 01:59:46;;;;;;;;;;;;;;;-2.93;85.44;93336.13;5018105;28;19917;-48
2023/02/05 02:02:11;;;;;;;;;;;;;;;-2.88;85.83;93346.28;5022114;28;19928;-48
2023/02/05 02:04:38;;;;;;;;;;;;;;;-2.78;85.86;93344.97;5013091;28;20016;-47
2023/02/05 02:07:03;;;;;;;;;;;;;;;-2.76;85.53;93346.00;5026486;28;19929;-47
2023/02/05 02:09:29;;;;;;;;;;;;;;;-2.76;85.48;93348.72;5021027;28;19929;-48
2023/02/05 02:11:54;;;;;;;;;;;;;;;-2.70;86.06;93351.50;5021813;28;19994;-47
2023/02/05 02:14:19;;;;;;;;;;;;;;;-2.81;85.69;93348.59;5011614;28;19928;-48
2023/02/05 02:16:45;;;;;;;;;;;;;;;-2.82;85.00;93349.81;5025172;28;19917;-47
2023/02/05 02:19:19;;;;;;;;;;;;;;;-2.80;85.59;93347.41;5010138;28;19966;-47
2023/02/05 02:22:14;;;;;;;;;;;;;;;-2.89;85.96;93355.59;5016323;28;20313;-47
2023/02/05 02:24:58;;;;;;;;;;;;;;;-2.73;85.70;93355.16;4959285;28;20009;-48
2023/02/05 02:27:39;;;;;;;;;;;;;;;-2.79;85.14;93349.63;5021390;28;20566;-49
2023/02/05 02:30:08;;;;;;;;;;;;;;;-2.67;85.64;93350.56;5012553;28;20438;-47
2023/02/05 02:32:37;;;;;;;;;;;;;;;-2.65;85.76;93354.31;5020361;28;19921;-48
2023/02/05 02:35:07;;;;;;;;;;;;;;;-2.84;85.41;93352.25;5008718;28;19924;-47
2023/02/05 02:37:35;;;;;;;;;;;;;;;-2.61;85.55;93362.22;5011677;28;20039;-47
2023/02/05 02:40:05;;;;;;;;;;;;;;;-2.69;84.29;93358.41;5012128;28;20416;-46
2023/02/05 02:42:35;;;;;;;;;;;;;;;-2.78;84.09;93363.91;5017142;28;20310;-47
2023/02/05 02:45:02;;;;;;;;;;;;;;;-2.65;84.76;93367.81;5021956;28;19940;-49
2023/02/05 02:47:28;;;;;;;;;;;;;;;-2.66;85.48;93370.97;5003133;28;19921;-46
2023/02/05 02:49:58;;;;;;;;;;;;;;;-2.75;84.63;93371.81;5011881;28;20390;-48
2023/02/05 02:52:23;;;;;;;;;;;;;;;-2.79;84.99;93370.50;5021738;28;20331;-47
2023/02/05 02:54:50;;;;;;;;;;;;;;;-2.88;85.54;93374.03;5011477;28;20027;-47
2023/02/05 02:57:16;;;;;;;;;;;;;;;-2.74;85.47;93378.72;5019732;28;19917;-46
2023/02/05 02:59:41;;;;;;;;;;;;;;;-2.74;84.60;93375.25;5008653;28;19914;-48
2023/02/05 03:02:08;;;;;;;;;;;;;;;-2.82;84.19;93382.25;5018321;28;20347;-47
2023/02/05 03:04:37;;;;;;;;;;;;;;;-2.94;85.04;93381.28;5024413;28;19928;-47
2023/02/05 03:07:10;;;;;;;;;;;;;;;-2.70;83.22;93378.50;5007066;28;20032;-47
2023/02/05 03:09:48;;;;;;;;;;;;;;;-2.95;83.06;93379.06;5014813;28;19976;-47
2023/02/05 03:12:13;;;;;;;;;;;;;;;-3.13;84.39;93379.97;5003600;28;19925;-47
2023/02/05 03:14:39;;;;;;;;;;;;;;;-3.24;85.10;93385.91;5021697;28;19913;-47
2023/02/05 03:17:04;;;;;;;;;;;;;;;-3.09;86.42;93385.91;5013714;28;19921;-47
2023/02/05 03:19:29;;;;;;;;;;;;;;;-3.15;86.04;93385.81;5011094;28;20393;-47
2023/02/05 03:21:55;;;;;;;;;;;;;;;-3.12;86.87;93384.88;5026532;28;19923;-48
2023/02/05 03:24:21;;;;;;;;;;;;;;;-3.02;87.75;93387.53;5003575;28;19918;-47
2023/02/05 03:26:46;;;;;;;;;;;;;;;-2.80;87.57;93385.97;5019916;28;20302;-47
2023/02/05 03:29:12;;;;;;;;;;;;;;;-2.81;86.89;93389.88;5013098;28;19917;-49
2023/02/05 03:31:49;;;;;;;;;;;;;;;-2.90;86.41;93387.25;5012230;28;20402;-47
2023/02/05 03:34:23;;;;;;;;;;;;;;;-2.72;85.63;93397.16;5027048;28;19913;-47
2023/02/05 03:36:52;;;;;;;;;;;;;;;-2.77;85.55;93395.13;5020438;28;20343;-47
2023/02/05 03:39:20;;;;;;;;;;;;;;;-2.58;85.59;93399.13;5023751;28;20427;-48
2023/02/05 03:41:55;;;;;;;;;;;;;;;-2.76;86.32;93388.50;5028024;28;20405;-48
2023/02/05 03:44:29;;;;;;;;;;;;;;;-2.88;85.17;93394.91;5007493;28;19940;-48
2023/02/05 03:47:01;;;;;;;;;;;;;;;-3.00;85.35;93391.25;5010442;28;20020;-47
2023/02/05 03:49:51;;;;;;;;;;;;;;;-2.85;84.56;93393.97;5021011;28;19917;-48
2023/02/05 03:52:16;;;;;;;;;;;;;;;-2.76;83.30;93394.66;5021150;28;19956;-49
2023/02/05 03:54:48;;;;;;;;;;;;;;;-2.75;82.45;93395.41;5005632;28;20389;-47
2023/02/05 03:57:23;;;;;;;;;;;;;;;-2.91;83.55;93390.44;5019669;28;19917;-47
2023/02/05 03:59:49;;;;;;;;;;;;;;;-3.00;84.36;93395.91;5005624;28;19916;-46
2023/02/05 04:02:14;;;;;;;;;;;;;;;-2.81;83.91;93395.28;5011587;28;19917;-47
2023/02/05 04:04:39;;;;;;;;;;;;;;;-2.78;83.43;93394.34;5021287;28;19985;-46
2023/02/05 04:07:05;;;;;;;;;;;;;;;-2.86;84.43;93398.66;5018290;28;20377;-47
2023/02/05 04:09:30;;;;;;;;;;;;;;;-2.82;84.53;93411.97;5024466;28;19975;-47
2023/02/05 04:11:55;;;;;;;;;;;;;;;-2.91;83.67;93414.75;5017959;28;19921;-49
2023/02/05 04:14:21;;;;;;;;;;;;;;;-2.82;83.16;93420.06;5021897;28;20380;-47
2023/02/05 04:16:46;;;;;;;;;;;;;;;-2.97;83.17;93425.44;5017823;28;19921;-46
2023/02/05 04:19:11;;;;;;;;;;;;;;;-3.07;83.81;93424.75;5015590;28;19921;-47
2023/02/05 04:21:36;;;;;;;;;;;;;;;-3.23;84.64;93435.97;5018562;28;19917;-47
2023/02/05 04:24:02;;;;;;;;;;;;;;;-3.31;85.42;93434.84;5013297;28;19921;-47
2023/02/05 04:26:27;;;;;;;;;;;;;;;-3.28;85.13;93433.16;5017254;28;20461;-48
2023/02/05 04:28:52;;;;;;;;;;;;;;;-3.41;85.43;93438.06;5020856;28;19916;-47
2023/02/05 04:31:17;;;;;;;;;;;;;;;-3.41;86.05;93440.75;5018986;28;20080;-47
2023/02/05 04:33:43;;;;;;;;;;;;;;;-3.45;86.11;93438.25;5018305;28;20018;-46
2023/02/05 04:36:08;;;;;;;;;;;;;;;-3.50;86.70;93441.56;5022039;28;19979;-48
2023/02/05 04:38:34;;;;;;;;;;;;;;;-3.43;87.20;93441.22;5009165;28;20266;-47
2023/02/05 04:40:59;;;;;;;;;;;;;;;-3.48;87.00;93441.09;5009248;28;19921;-47
2023/02/05 04:43:24;;;;;;;;;;;;;;;-3.60;87.19;93445.53;5024134;28;20025;-48
2023/02/05 04:45:49;;;;;;;;;;;;;;;-3.52;86.78;93440.50;5020659;28;19948;-46
2023/02/05 04:48:15;;;;;;;;;;;;;;;-3.54;86.92;93451.78;5018597;28;20045;-47
2023/02/05 04:50:40;;;;;;;;;;;;;;;-3.49;86.34;93439.59;5027339;28;19913;-49
2023/02/05 04:53:05;;;;;;;;;;;;;;;-3.55;86.15;93452.25;5026546;28;19917;-46
2023/02/05 04:55:31;;;;;;;;;;;;;;;-3.64;86.58;93444.19;5019755;28;19928;-46
2023/02/05 04:57:56;;;;;;;;;;;;;;;-3.73;87.38;93445.00;5017251;28;19939;-46
2023/02/05 05:00:21;;;;;;;;;;;;;;;-3.67;87.56;93448.53;5019785;28;19921;-47
2023/02/05 05:02:46;;;;;;;;;;;;;;;-3.73;87.69;93446.94;5013921;28;19928;-47
2023/02/05 05:05:12;;;;;;;;;;;;;;;-3.74;86.94;93453.53;5009432;28;20597;-48
2023/02/05 05:07:37;;;;;;;;;;;;;;;-3.71;85.97;93450.66;5016474;28;19990;-47
2023/02/05 05:10:05;;;;;;;;;;;;;;;-4.00;86.61;93453.19;5024491;28;19996;-47
2023/02/05 05:12:31;;;;;;;;;;;;;;;-3.93;86.79;93455.56;5017698;28;20294;-46
2023/02/05 05:14:56;;;;;;;;;;;;;;;-4.03;86.54;93457.53;5023663;28;19924;-46
2023/02/05 05:17:21;;;;;;;;;;;;;;;-4.14;86.54;93461.94;5026255;28;20052;-47
2023/02/05 05:19:47;;;;;;;;;;;;;;;-4.15;87.24;93466.56;5023219;28;19929;-47
2023/02/05 05:22:12;;;;;;;;;;;;;;;-4.19;87.71;93457.91;5024738;28;20304;-46
2023/02/05 05:24:37;;;;;;;;;;;;;;;-4.20;87.65;93461.78;5024398;28;19921;-46
2023/02/05 05:27:02;;;;;;;;;;;;;;;-4.17;87.70;93462.84;5017684;28;19922;-46
2023/02/05 05:29:28;;;;;;;;;;;;;;;-4.27;87.29;93461.38;5019225;28;19924;-47
2023/02/05 05:31:53;;;;;;;;;;;;;;;-4.20;87.24;93469.88;5017404;28;20024;-46
2023/02/05 05:34:19;;;;;;;;;;;;;;;-4.18;87.75;93467.47;5017036;28;19928;-47
2023/02/05 05:36:46;;;;;;;;;;;;;;;-4.18;87.91;93461.34;5020735;28;19928;-46
2023/02/05 05:44:39;;;;;;;;;;;;;;;-4.29;87.78;93471.88;5018677;28;19976;-47
2023/02/05 05:47:04;;;;;;;;;;;;;;;-4.26;88.61;93481.72;5021159;28;19921;-46
2023/02/05 05:49:29;;;;;;;;;;;;;;;-4.16;88.37;93470.47;5012930;28;20012;-46
2023/02/05 05:51:54;;;;;;;;;;;;;;;-4.34;88.12;93477.84;5021430;28;20039;-46
2023/02/05 05:54:20;;;;;;;;;;;;;;;-4.22;87.85;93476.94;5015278;28;20023;-48
2023/02/05 05:56:45;;;;;;;;;;;;;;;-4.37;87.62;93478.75;5016182;28;19917;-46
2023/02/05 05:59:11;;;;;;;;;;;;;;;-4.41;88.17;93480.84;5019996;28;19920;-47
2023/02/05 06:01:36;;;;;;;;;;;;;;;-4.34;87.91;93486.69;5023643;28;19948;-46
2023/02/05 06:04:02;;;;;;;;;;;;;;;-4.33;87.46;93492.84;5011182;28;19967;-47
2023/02/05 06:06:27;;;;;;;;;;;;;;;-4.30;87.36;93486.53;5015050;28;19949;-46
2023/02/05 06:08:52;;;;;;;;;;;;;;;-4.20;86.98;93501.50;5020669;28;20401;-46
2023/02/05 06:11:18;;;;;;;;;;;;;;;-4.00;85.93;93494.38;5016616;28;20002;-46
2023/02/05 06:13:43;;;;;;;;;;;;;;;-3.97;85.72;93492.72;5017179;28;19929;-47
2023/02/05 06:16:08;;;;;;;;;;;;;;;-3.91;84.64;93494.34;5016666;28;20000;-47
2023/02/05 06:18:33;;;;;;;;;;;;;;;-3.97;84.92;93487.34;5012971;28;20025;-46
2023/02/05 06:21:00;;;;;;;;;;;;;;;-3.97;84.05;93496.19;5016248;28;20041;-46
2023/02/05 06:23:25;;;;;;;;;;;;;;;-3.94;83.50;93492.56;5013615;28;20393;-46
2023/02/05 06:25:51;;;;;;;;;;;;;;;-3.87;81.74;93503.03;5021005;28;19917;-46
2023/02/05 06:28:16;;;;;;;;;;;;;;;-3.81;82.95;93500.44;5014675;28;20312;-46
2023/02/05 06:30:41;;;;;;;;;;;;;;;-4.02;83.31;93510.28;5016403;28;19925;-45
2023/02/05 06:33:06;;;;;;;;;;;;;;;-3.88;84.26;93508.88;5012177;28;19921;-46
2023/02/05 06:35:32;;;;;;;;;;;;;;;-4.07;82.54;93516.28;5027813;28;20036;-47
2023/02/05 06:37:57;;;;;;;;;;;;;;;-4.01;80.88;93517.16;5018751;28;19983;-46
2023/02/05 06:40:24;;;;;;;;;;;;;;;-3.75;81.77;93514.84;5024853;28;19956;-47
2023/02/05 06:42:51;;;;;;;;;;;;;;;-3.69;81.59;93520.34;5017567;28;20106;-48
2023/02/05 06:45:16;;;;;;;;;;;;;;;-3.59;79.23;93525.25;5022841;28;19924;-48
2023/02/05 06:47:41;;;;;;;;;;;;;;;-3.35;76.54;93517.19;5020181;28;19917;-48
2023/02/05 06:50:07;;;;;;;;;;;;;;;-3.29;78.56;93516.09;5021509;28;19988;-47
2023/02/05 06:52:32;;;;;;;;;;;;;;;-3.29;76.56;93524.19;5028726;28;20447;-48
2023/02/05 06:54:57;;;;;;;;;;;;;;;-3.29;76.47;93529.59;5028557;28;20313;-46
2023/02/05 06:57:22;;;;;;;;;;;;;;;-3.25;76.47;93526.75;5016061;28;19917;-46
2023/02/05 06:59:48;;;;;;;;;;;;;;;-3.37;78.11;93525.75;5019248;28;19925;-47
2023/02/05 07:02:13;;;;;;;;;;;;;;;-3.10;76.42;93524.88;5017244;28;19929;-48
2023/02/05 07:04:38;;;;;;;;;;;;;;;-3.04;74.93;93539.22;5017186;28;20057;-47
2023/02/05 07:07:04;;;;;;;;;;;;;;;-3.15;73.29;93530.88;5014546;28;20402;-48
2023/02/05 07:09:30;;;;;;;;;;;;;;;-3.08;72.96;93546.75;5017014;28;19916;-48
2023/02/05 07:11:55;;;;;;;;;;;;;;;-2.79;71.69;93544.16;5011359;28;19978;-47
2023/02/05 07:14:20;;;;;;;;;;;;;;;-3.05;70.98;93550.50;5027702;28;19921;-48
2023/02/05 07:16:45;;;;;;;;;;;;;;;-2.92;70.60;93551.75;5042265;28;19917;-46
2023/02/05 07:19:11;;;;;;;;;;;;;;;-2.90;70.24;93554.00;5043213;28;19932;-48
2023/02/05 07:21:36;;;;;;;;;;;;;;;-2.86;68.68;93549.16;5042245;28;19972;-47
2023/02/05 07:24:02;;;;;;;;;;;;;;;-2.96;69.18;93566.63;5037448;28;19924;-47
2023/02/05 07:26:27;;;;;;;;;;;;;;;-3.23;65.96;93556.72;5041400;28;19959;-46
2023/02/05 07:28:52;;;;;;;;;;;;;;;-3.08;68.54;93566.41;5033441;28;19917;-48
2023/02/05 07:31:18;;;;;;;;;;;;;;;-2.67;67.22;93574.84;5039720;28;20939;-47
2023/02/05 07:33:46;;;;;;;;;;;;;;;-2.07;68.51;93569.88;5036342;28;19925;-48
2023/02/05 07:36:15;;;;;;;;;;;;;;;-1.81;67.82;93580.91;5041960;28;20340;-48
2023/02/05 07:38:40;;;;;;;;;;;;;;;-1.57;67.17;93576.91;5041679;28;20332;-49
2023/02/05 07:41:06;;;;;;;;;;;;;;;-1.35;64.91;93579.22;5044038;28;19924;-48
2023/02/05 07:43:31;;;;;;;;;;;;;;;-1.31;62.61;93584.41;5035321;28;19928;-48
2023/02/05 07:45:57;;;;;;;;;;;;;;;-1.18;63.69;93585.63;5044357;28;19917;-46
2023/02/05 07:48:22;;;;;;;;;;;;;;;-1.69;59.11;93596.84;5044924;28;19921;-47
2023/02/05 07:50:47;;;;;;;;;;;;;;;-1.68;62.52;93587.53;5047962;28;19917;-46
2023/02/05 07:53:13;;;;;;;;;;;;;;;-1.38;62.18;93601.03;5043980;28;20404;-47
2023/02/05 07:55:38;;;;;;;;;;;;;;;-1.54;58.80;93611.13;5044096;28;19924;-48
2023/02/05 07:58:03;;;;;;;;;;;;;;;-2.09;63.21;93593.19;5040691;28;19925;-48
2023/02/05 08:00:29;;;;;;;;;;;;;;;-2.22;62.89;93595.38;5040199;28;19924;-48
2023/02/05 08:02:54;;;;;;;;;;;;;;;-2.22;61.54;93596.16;5039779;28;19926;-47
2023/02/05 08:05:19;;;;;;;;;;;;;;;-2.53;62.70;93599.22;5040081;28;19960;-48
2023/02/05 08:07:44;;;;;;;;;;;;;;;-2.45;60.98;93616.56;5037841;28;20588;-48
2023/02/05 08:10:11;;;;;;;;;;;;;;;-2.21;63.03;93613.13;5035510;28;19913;-47
2023/02/05 08:12:36;;;;;;;;;;;;;;;-1.58;64.44;93605.16;5036597;28;20010;-47
2023/02/05 08:15:02;;;;;;;;;;;;;;;-1.34;59.61;93615.88;5038575;28;19975;-46
2023/02/05 08:17:27;;;;;;;;;;;;;;;-1.65;59.23;93627.22;5041370;28;20449;-48
2023/02/05 08:19:52;;;;;;;;;;;;;;;-1.08;62.26;93630.34;5042288;28;19920;-47
2023/02/05 08:22:17;;;;;;;;;;;;;;;-1.07;57.68;93634.56;5039927;28;19925;-47
2023/02/05 08:24:43;;;;;;;;;;;;;;;-0.86;57.30;93632.63;5041312;28;20077;-47
2023/02/05 08:27:08;;;;;;;;;;;;;;;-1.41;60.13;93639.91;5039969;28;20316;-47
2023/02/05 08:29:33;;;;;;;;;;;;;;;-1.29;59.94;93631.50;5037912;28;19972;-47
2023/02/05 08:31:59;;;;;;;;;;;;;;;-2.03;58.89;93619.13;5038087;28;20325;-47
2023/02/05 08:34:24;;;;;;;;;;;;;;;-1.77;60.05;93633.63;5040575;28;19920;-47
2023/02/05 08:36:49;;;;;;;;;;;;;;;-1.62;61.34;93647.16;5038179;28;19920;-47
2023/02/05 08:39:14;;;;;;;;;;;;;;;-1.58;57.15;93645.78;5037753;28;19921;-47
2023/02/05 08:41:40;;;;;;;;;;;;;;;-1.20;60.40;93653.06;5040331;28;19924;-49
2023/02/05 08:44:05;;;;;;;;;;;;;;;-0.71;59.55;93646.91;5038345;28;20424;-48
2023/02/05 08:46:30;;;;;;;;;;;;;;;-0.29;59.54;93652.66;5035319;28;19951;-46
2023/02/05 08:48:56;;;;;;;;;;;;;;;-0.12;59.81;93658.31;5034386;28;19917;-45
2023/02/05 08:51:21;;;;;;;;;;;;;;;-0.12;59.30;93648.19;5035927;28;19983;-47
2023/02/05 08:53:47;;;;;;;;;;;;;;;-0.11;59.25;93660.53;5033847;28;20012;-46
2023/02/05 08:56:13;;;;;;;;;;;;;;;0.02;58.65;93656.75;5034543;28;19940;-48
2023/02/05 08:58:38;;;;;;;;;;;;;;;0.33;57.45;93667.69;5037584;28;20429;-47
2023/02/05 09:01:08;;;;;;;;;;;;;;;0.40;54.41;93670.00;5036593;28;19978;-48
2023/02/05 09:03:34;;;;;;;;;;;;;;;-0.33;55.07;93675.78;5035840;28;19964;-48
2023/02/05 09:05:59;;;;;;;;;;;;;;;-0.23;58.14;93675.19;5036673;28;20042;-47
2023/02/05 09:08:25;;;;;;;;;;;;;;;-0.45;52.54;93672.16;5032373;28;20321;-47
2023/02/05 09:10:50;;;;;;;;;;;;;;;-0.30;54.37;93670.16;5038395;28;19921;-47
2023/02/05 09:13:16;;;;;;;;;;;;;;;-0.44;56.13;93664.78;5037973;28;19927;-48
2023/02/05 09:15:42;;;;;;;;;;;;;;;0.11;57.77;93667.47;5033524;28;20641;-48
2023/02/05 09:18:07;;;;;;;;;;;;;;;-0.28;57.04;93681.28;5031984;28;19917;-48
2023/02/05 09:20:33;;;;;;;;;;;;;;;0.27;53.93;93683.94;5029926;28;19921;-48
2023/02/05 09:22:59;;;;;;;;;;;;;;;0.59;55.70;93679.34;5031241;28;20419;-49
2023/02/05 09:25:24;;;;;;;;;;;;;;;0.74;51.86;93694.31;5034964;28;19917;-47
2023/02/05 09:27:50;;;;;;;;;;;;;;;0.59;51.04;93687.47;5031450;28;19921;-47
2023/02/05 09:30:15;;;;;;;;;;;;;;;0.57;52.27;93692.66;5033756;28;19928;-47
2023/02/05 09:32:40;;;;;;;;;;;;;;;0.74;53.84;93690.84;5039212;28;20004;-47
2023/02/05 09:35:06;;;;;;;;;;;;;;;0.69;53.69;93692.28;5034113;28;19917;-45
2023/02/05 09:37:31;;;;;;;;;;;;;;;0.75;53.80;93692.34;5036582;28;19927;-47
2023/02/05 09:39:56;;;;;;;;;;;;;;;0.82;52.48;93702.81;5033093;28;20294;-46
2023/02/05 09:42:21;;;;;;;;;;;;;;;0.74;50.74;93707.16;5035198;28;19927;-48
2023/02/05 09:45:00;;;;;;;;;;;;;;;0.70;50.07;93704.66;5036704;28;19917;-46
2023/02/05 09:47:25;;;;;;;;;;;;;;;0.76;51.37;93707.41;5039938;28;20040;-46
2023/02/05 09:49:53;;;;;;;;;;;;;;;0.35;51.51;93689.69;5036239;28;20515;-45
2023/02/05 09:52:30;;;;;;;;;;;;;;;1.20;49.85;93701.63;5033812;28;19956;-48
2023/02/05 09:55:06;;;;;;;;;;;;;;;0.88;51.85;93694.69;5039933;28;19920;-47
2023/02/05 09:57:33;;;;;;;;;;;;;;;1.08;49.88;93702.78;5033955;28;19920;-48
2023/02/05 09:59:58;;;;;;;;;;;;;;;0.76;50.32;93696.53;5034923;28;19913;-48
2023/02/05 10:02:34;;;;;;;;;;;;;;;0.99;49.09;93692.06;5039091;28;20726;-48
2023/02/05 10:04:59;;;;;;;;;;;;;;;1.16;49.11;93690.25;5036600;28;19979;-47
2023/02/05 10:07:31;;;;;;;;;;;;;;;2.80;47.42;93702.50;5040066;28;19968;-46
2023/02/05 10:10:14;;;;;;;;;;;;;;;2.75;46.88;93705.94;5036814;28;19917;-49
2023/02/05 10:12:43;;;;;;;;;;;;;;;3.54;42.38;93705.53;5044629;28;19969;-47
2023/02/05 10:15:13;;;;;;;;;;;;;;;3.88;43.04;93691.88;5033004;28;19913;-47
2023/02/05 10:17:50;;;;;;;;;;;;;;;3.59;41.54;93685.69;5035608;28;19914;-47
2023/02/05 10:20:35;;;;;;;;;;;;;;;2.97;41.75;93697.06;5040384;28;20373;-47
2023/02/05 10:23:00;;;;;;;;;;;;;;;1.92;48.12;93702.16;5038638;28;19917;-47
2023/02/05 10:25:28;;;;;;;;;;;;;;;1.99;45.68;93705.13;5042045;28;19944;-49
2023/02/05 10:28:00;;;;;;;;;;;;;;;1.32;47.86;93705.97;5035897;28;19935;-50
2023/02/05 10:30:26;;;;;;;;;;;;;;;1.33;47.87;93700.03;5037026;28;19964;-48
2023/02/05 10:32:58;;;;;;;;;;;;;;;0.76;50.28;93701.97;5038338;28;19921;-49
2023/02/05 10:35:26;;;;;;;;;;;;;;;0.78;49.38;93699.53;5037754;28;20405;-49
2023/02/05 10:37:55;;;;;;;;;;;;;;;-0.91;50.10;93704.50;5032506;28;20436;-49
2023/02/05 10:40:21;;;;;;;;;;;;;;;-0.82;50.91;93700.94;5038772;28;20011;-47
2023/02/05 10:42:49;;;;;;;;;;;;;;;-1.13;53.72;93708.84;5044228;28;19921;-47
2023/02/05 10:45:19;;;;;;;;;;;;;;;-1.22;54.60;93717.03;5041086;28;20313;-46
2023/02/05 10:47:44;;;;;;;;;;;;;;;-1.18;54.12;93707.53;5039067;28;19935;-46
2023/02/05 10:50:22;;;;;;;;;;;;;;;-1.13;53.09;93706.88;5046133;28;19917;-48
2023/02/05 10:52:47;;;;;;;;;;;;;;;-1.61;54.90;93703.56;5039176;28;19917;-46
2023/02/05 10:55:13;;;;;;;;;;;;;;;-1.29;58.20;93707.34;5038771;28;19943;-47
2023/02/05 10:57:38;;;;;;;;;;;;;;;-1.40;58.52;93706.38;5041466;28;19995;-47
2023/02/05 11:00:11;;;;;;;;;;;;;;;-1.04;59.98;93706.75;5041437;28;20463;-47
2023/02/05 11:02:37;;;;;;;;;;;;;;;-0.82;57.51;93707.13;5040438;28;19920;-47
2023/02/05 11:05:06;;;;;;;;;;;;;;;-0.83;58.92;93711.06;5040241;28;19917;-47
2023/02/05 11:07:42;;;;;;;;;;;;;;;-0.76;59.15;93713.38;5023969;28;19925;-46
2023/02/05 11:10:24;;;;;;;;;;;;;;;-0.13;58.39;93717.25;5028912;28;19960;-48
2023/02/05 11:12:53;;;;;;;;;;;;;;;-0.03;57.36;93718.63;5037467;28;19920;-46
2023/02/05 11:15:26;;;;;;;;;;;;;;;0.23;56.88;93715.97;5028937;28;19925;-47
2023/02/05 11:17:52;;;;;;;;;;;;;;;0.07;57.48;93721.94;5024992;28;19928;-47
2023/02/05 11:20:19;;;;;;;;;;;;;;;-0.09;56.43;93717.78;5026827;28;19917;-46
2023/02/05 11:22:47;;;;;;;;;;;;;;;0.19;56.15;93715.44;5040688;28;19928;-46
2023/02/05 11:25:21;;;;;;;;;;;;;;;0.75;57.48;93714.09;5041039;28;19921;-47
2023/02/05 11:27:53;;;;;;;;;;;;;;;0.23;56.23;93715.22;5043654;28;19928;-48
2023/02/05 11:30:34;;;;;;;;;;;;;;;0.71;57.50;93708.84;5033470;28;19932;-47
2023/02/05 11:33:20;;;;;;;;;;;;;;;0.70;56.16;93720.19;5044626;28;20420;-46
2023/02/05 11:35:57;;;;;;;;;;;;;;;0.18;54.22;93707.75;5033597;28;20405;-48
2023/02/05 11:38:43;;;;;;;;;;;;;;;0.02;55.44;93716.47;5034884;28;19917;-48
2023/02/05 11:41:09;;;;;;;;;;;;;;;0.17;56.78;93717.13;5032844;28;19916;-47
2023/02/05 11:43:34;;;;;;;;;;;;;;;-0.05;57.03;93712.19;5048765;28;20400;-47
2023/02/05 11:45:59;;;;;;;;;;;;;;;0.23;57.15;93715.22;5034900;28;20460;-47
2023/02/05 11:48:25;;;;;;;;;;;;;;;-0.28;57.45;93716.53;5035552;28;20589;-47
2023/02/05 11:50:50;;;;;;;;;;;;;;;-0.50;57.96;93710.06;5044283;28;19963;-47
2023/02/05 11:53:16;;;;;;;;;;;;;;;-0.32;57.71;93702.44;5045960;28;19917;-48
2023/02/05 11:55:41;;;;;;;;;;;;;;;0.04;56.93;93716.72;5038935;28;19913;-47
2023/02/05 11:58:17;;;;;;;;;;;;;;;-0.05;54.97;93704.78;5047038;28;20008;-47
2023/02/05 12:00:52;;;;;;;;;;;;;;;0.13;54.71;93706.47;5027193;28;19921;-47
2023/02/05 12:03:18;;;;;;;;;;;;;;;-0.02;55.08;93706.53;5046673;28;20756;-46
2023/02/05 12:05:49;;;;;;;;;;;;;;;-0.11;54.94;93709.38;5048501;28;19982;-46
2023/02/05 12:08:30;;;;;;;;;;;;;;;0.05;55.57;93720.91;5041088;28;20418;-46
2023/02/05 12:11:00;;;;;;;;;;;;;;;0.31;53.68;93716.31;5044060;28;19936;-47
2023/02/05 12:13:25;;;;;;;;;;;;;;;0.36;55.47;93712.91;5046085;28;19997;-46
2023/02/05 12:16:19;;;;;;;;;;;;;;;0.18;53.56;93718.63;5039525;28;19963;-47
2023/02/05 12:18:57;;;;;;;;;;;;;;;-0.56;55.48;93722.81;5033456;28;19920;-48
2023/02/05 12:21:22;;;;;;;;;;;;;;;-0.34;53.97;93725.81;5031357;28;19921;-46
2023/02/05 12:23:51;;;;;;;;;;;;;;;-0.46;55.05;93722.22;5039257;28;20384;-47
2023/02/05 12:26:16;;;;;;;;;;;;;;;-0.81;54.60;93697.03;5038764;28;20067;-47
2023/02/05 12:29:14;;;;;;;;;;;;;;;-0.87;55.76;93721.31;5042473;28;19920;-47
2023/02/05 12:31:54;;;;;;;;;;;;;;;-0.91;55.71;93709.22;5003220;28;19924;-46
2023/02/05 12:34:35;;;;;;;;;;;;;;;-1.00;55.32;93712.75;5038352;28;20293;-46
2023/02/05 12:37:19;;;;;;;;;;;;;;;-1.07;56.44;93717.78;5043083;28;19921;-46
2023/02/05 12:39:45;;;;;;;;;;;;;;;-1.14;56.79;93715.44;5036695;28;19920;-47
2023/02/05 12:42:14;;;;;;;;;;;;;;;-1.26;57.26;93719.94;5040774;28;19916;-46
2023/02/05 12:44:43;;;;;;;;;;;;;;;-1.36;58.13;93734.78;5043279;28;19979;-46
2023/02/05 12:47:19;;;;;;;;;;;;;;;-1.38;58.11;93733.75;5038410;28;20692;-47
2023/02/05 12:50:05;;;;;;;;;;;;;;;-1.40;58.84;93733.47;5033939;28;19968;-46
2023/02/05 12:52:30;;;;;;;;;;;;;;;-1.38;59.36;93734.50;5033062;28;19920;-46
2023/02/05 12:55:24;;;;;;;;;;;;;;;-1.49;59.18;93730.84;5038826;28;20551;-47